createdAt,value
2022-11-14T00:00:00.783Z,13.77
2022-11-14T00:02:47.441Z,12.38
2022-11-14T00:05:34.053Z,14.68
2022-11-14T00:08:27.630Z,13.95
2022-11-14T00:11:14.251Z,11.82
2022-11-14T00:14:01.925Z,16.83
2022-11-14T00:16:49.109Z,12.00
2022-11-14T00:19:35.553Z,11.80
2022-11-14T00:22:22.060Z,11.95
2022-11-14T00:25:09.584Z,13.20
2022-11-14T00:27:59.286Z,13.55
2022-11-14T00:30:49.311Z,14.38
2022-11-14T00:33:35.713Z,13.52
2022-11-14T00:36:22.460Z,12.15
2022-11-14T00:39:13.388Z,14.65
2022-11-14T00:41:59.320Z,13.90
2022-11-14T00:44:46.005Z,14.82
2022-11-14T00:47:32.679Z,12.93
2022-11-14T00:50:20.211Z,16.23
2022-11-14T00:53:06.782Z,14.23
2022-11-14T00:55:53.335Z,13.25
2022-11-14T00:58:39.733Z,14.80
2022-11-14T01:01:26.534Z,12.95
2022-11-14T01:04:12.913Z,14.68
2022-11-14T01:06:59.445Z,14.77
2022-11-14T01:09:45.982Z,13.35
2022-11-14T01:12:33.501Z,13.13
2022-11-14T01:15:19.769Z,11.95
2022-11-14T01:18:06.252Z,11.77
2022-11-14T01:20:52.756Z,13.70
2022-11-14T01:23:39.740Z,14.38
2022-11-14T01:26:25.849Z,13.75
2022-11-14T01:29:12.423Z,14.27
2022-11-14T01:31:58.869Z,12.07
2022-11-14T01:34:46.618Z,12.20
2022-11-14T01:37:33.334Z,11.18
2022-11-14T01:40:19.752Z,13.20
2022-11-14T01:43:18.250Z,12.45
2022-11-14T01:46:17.668Z,12.65
2022-11-14T01:49:19.521Z,12.35
2022-11-14T01:52:17.228Z,13.45
2022-11-14T01:55:08.294Z,12.90
2022-11-14T01:57:54.827Z,13.82
2022-11-14T02:00:41.430Z,10.77
2022-11-14T02:03:27.900Z,13.38
2022-11-14T02:06:20.637Z,13.82
2022-11-14T02:09:07.910Z,13.45
2022-11-14T02:11:57.095Z,12.68
2022-11-14T02:14:46.573Z,13.75
2022-11-14T02:17:33.162Z,13.70
2022-11-14T02:20:22.808Z,13.85
2022-11-14T02:23:11.478Z,13.82
2022-11-14T02:25:58.608Z,11.63
2022-11-14T02:28:45.262Z,12.43
2022-11-14T02:31:31.947Z,12.80
2022-11-14T02:34:20.258Z,13.10
2022-11-14T02:37:07.473Z,10.57
2022-11-14T02:39:54.049Z,11.93
2022-11-14T02:42:40.999Z,13.38
2022-11-14T02:45:32.658Z,11.38
2022-11-14T02:48:19.138Z,12.65
2022-11-14T02:51:05.806Z,10.90
2022-11-14T02:53:52.608Z,11.38
2022-11-14T02:56:39.239Z,12.80
2022-11-14T02:59:25.886Z,11.20
2022-11-14T03:02:14.079Z,10.98
2022-11-14T03:05:00.895Z,11.52
2022-11-14T03:07:47.596Z,10.88
2022-11-14T03:10:34.355Z,12.75
2022-11-14T03:13:20.820Z,11.07
2022-11-14T03:16:12.779Z,12.05
2022-11-14T03:18:59.063Z,14.10
2022-11-14T03:21:45.643Z,10.82
2022-11-14T03:24:32.199Z,11.75
2022-11-14T03:27:18.869Z,11.55
2022-11-14T03:30:05.642Z,10.98
2022-11-14T03:32:52.006Z,12.52
2022-11-14T03:35:43.659Z,10.40
2022-11-14T03:38:34.631Z,9.45
2022-11-14T03:41:20.999Z,11.25
2022-11-14T03:44:07.609Z,10.05
2022-11-14T03:46:54.281Z,9.63
2022-11-14T03:49:44.962Z,12.85
2022-11-14T03:52:31.001Z,11.45
2022-11-14T03:55:17.719Z,11.57
2022-11-14T03:58:29.661Z,9.68
2022-11-14T04:01:16.329Z,10.30
2022-11-14T04:04:03.163Z,10.68
2022-11-14T04:06:49.720Z,10.45
2022-11-14T04:09:36.005Z,11.18
2022-11-14T04:12:22.657Z,9.10
2022-11-14T04:15:09.686Z,10.93
2022-11-14T04:17:56.099Z,10.38
2022-11-14T04:20:42.587Z,11.30
2022-11-14T04:23:29.490Z,12.15
2022-11-14T04:26:40.410Z,10.10
2022-11-14T04:29:27.018Z,11.07
2022-11-14T04:32:13.469Z,10.65
2022-11-14T04:35:00.114Z,10.85
2022-11-14T04:37:47.046Z,11.57
2022-11-14T04:40:33.148Z,11.20
2022-11-14T04:43:21.724Z,10.80
2022-11-14T04:46:08.495Z,10.63
2022-11-14T04:48:54.968Z,9.98
2022-11-14T04:51:41.521Z,9.60
2022-11-14T04:54:28.054Z,9.25
2022-11-14T04:57:16.456Z,10.48
2022-11-14T05:00:04.152Z,9.90
2022-11-14T05:02:50.986Z,9.68
2022-11-14T05:05:41.705Z,10.18
2022-11-14T05:08:56.117Z,10.10
2022-11-14T05:11:44.511Z,9.52
2022-11-14T05:14:31.699Z,10.75
2022-11-14T05:17:43.525Z,10.95
2022-11-14T05:23:29.762Z,8.25
2022-11-14T05:26:18.411Z,10.13
2022-11-14T05:29:04.991Z,8.35
2022-11-14T05:31:51.443Z,8.55
2022-11-14T05:34:38.171Z,10.10
2022-11-14T05:37:24.768Z,9.73
2022-11-14T05:40:11.337Z,10.30
2022-11-14T05:42:57.539Z,9.52
2022-11-14T05:45:44.141Z,11.52
2022-11-14T05:48:31.254Z,10.18
2022-11-14T05:51:17.954Z,8.80
2022-11-14T05:54:04.385Z,10.73
2022-11-14T05:56:52.504Z,7.93
2022-11-14T05:59:38.708Z,10.73
2022-11-14T06:02:25.511Z,10.38
2022-11-14T06:05:11.878Z,8.73
2022-11-14T06:07:59.171Z,9.02
2022-11-14T06:10:45.481Z,10.52
2022-11-14T06:13:32.414Z,10.05
2022-11-14T06:16:20.166Z,9.13
2022-11-14T06:19:06.981Z,10.23
2022-11-14T06:21:53.509Z,9.73
2022-11-14T06:24:40.965Z,8.52
2022-11-14T06:27:27.727Z,10.10
2022-11-14T06:30:14.192Z,9.55
2022-11-14T06:33:00.601Z,10.13
2022-11-14T06:35:47.062Z,9.02
2022-11-14T06:38:36.239Z,8.90
2022-11-14T06:41:23.266Z,9.73
2022-11-14T06:44:14.971Z,7.45
2022-11-14T06:47:01.336Z,9.63
2022-11-14T06:49:47.767Z,8.70
2022-11-14T06:52:34.229Z,10.30
2022-11-14T06:55:25.164Z,9.25
2022-11-14T06:58:41.334Z,9.30
2022-11-14T07:01:27.607Z,7.13
2022-11-14T07:04:14.227Z,7.78
2022-11-14T07:07:00.898Z,8.55
2022-11-14T07:09:47.344Z,8.25
2022-11-14T07:12:33.866Z,8.82
2022-11-14T07:15:20.465Z,8.98
2022-11-14T07:18:06.962Z,7.85
2022-11-14T07:21:01.947Z,9.00
2022-11-14T07:23:48.559Z,8.30
2022-11-14T07:26:35.093Z,8.75
2022-11-14T07:29:21.649Z,7.35
2022-11-14T07:32:08.074Z,9.38
2022-11-14T07:34:59.221Z,8.25
2022-11-14T07:37:48.566Z,7.63
2022-11-14T07:40:35.189Z,7.47
2022-11-14T07:43:21.630Z,8.13
2022-11-14T07:46:14.020Z,7.78
2022-11-14T07:49:00.292Z,7.97
2022-11-14T07:51:46.990Z,9.35
2022-11-14T07:54:33.844Z,8.82
2022-11-14T07:57:20.335Z,9.98
2022-11-14T08:00:14.754Z,10.55
2022-11-14T08:03:01.228Z,8.52
2022-11-14T08:05:47.840Z,9.20
2022-11-14T08:08:34.327Z,9.68
2022-11-14T08:11:40.980Z,10.35
2022-11-14T08:14:27.956Z,8.90
2022-11-14T08:17:14.524Z,8.98
2022-11-14T08:20:01.104Z,9.05
2022-11-14T08:22:47.724Z,9.38
2022-11-14T08:25:34.670Z,9.88
2022-11-14T08:28:21.021Z,9.55
2022-11-14T08:31:07.682Z,10.13
2022-11-14T08:33:54.238Z,9.13
2022-11-14T08:36:40.884Z,8.57
2022-11-14T08:39:27.462Z,9.52
2022-11-14T08:42:14.015Z,9.15
2022-11-14T08:45:00.521Z,8.82
2022-11-14T08:47:57.015Z,8.60
2022-11-14T08:50:43.262Z,9.25
2022-11-14T08:53:30.773Z,10.10
2022-11-14T08:56:16.955Z,10.45
2022-11-14T08:59:04.352Z,9.80
2022-11-14T09:02:16.356Z,8.98
2022-11-14T09:05:02.709Z,8.07
2022-11-14T09:07:49.287Z,9.85
2022-11-14T09:10:35.910Z,8.48
2022-11-14T09:13:47.642Z,8.77
2022-11-14T09:16:33.995Z,8.93
2022-11-14T09:19:20.560Z,8.27
2022-11-14T09:22:07.201Z,9.50
2022-11-14T09:24:53.987Z,7.88
2022-11-14T09:27:40.352Z,7.40
2022-11-14T09:30:27.034Z,8.65
2022-11-14T09:33:13.586Z,9.27
2022-11-14T09:36:05.363Z,8.63
2022-11-14T09:38:52.205Z,8.30
2022-11-14T09:42:06.268Z,7.50
2022-11-14T09:45:07.229Z,9.20
2022-11-14T09:48:01.154Z,8.25
2022-11-14T09:51:03.579Z,7.97
2022-11-14T09:54:15.681Z,7.63
2022-11-14T09:59:49.359Z,7.90
2022-11-14T10:03:23.783Z,8.80
2022-11-14T10:06:24.825Z,7.18
2022-11-14T10:09:27.370Z,6.25
2022-11-14T10:12:40.719Z,8.38
2022-11-14T10:16:04.547Z,7.93
2022-11-14T10:19:11.202Z,8.75
2022-11-14T10:22:05.803Z,8.68
2022-11-14T10:24:56.938Z,7.40
2022-11-14T10:28:16.288Z,8.00
2022-11-14T10:31:28.643Z,7.88
2022-11-14T10:34:41.746Z,6.93
2022-11-14T10:37:52.745Z,7.40
2022-11-14T10:40:50.004Z,8.07
2022-11-14T10:43:51.778Z,7.35
2022-11-14T10:46:41.968Z,8.85
2022-11-14T10:49:32.819Z,6.72
2022-11-14T10:52:26.547Z,7.88
2022-11-14T10:55:18.546Z,7.53
2022-11-14T10:58:18.770Z,7.65
2022-11-14T11:01:46.530Z,7.53
2022-11-14T11:04:36.457Z,7.65
2022-11-14T11:07:45.019Z,7.38
2022-11-14T11:10:52.392Z,8.00
2022-11-14T11:13:55.020Z,7.20
2022-11-14T11:16:43.400Z,7.18
2022-11-14T11:19:30.885Z,7.93
2022-11-14T11:22:38.259Z,7.78
2022-11-14T11:25:28.564Z,7.88
2022-11-14T11:28:21.670Z,8.70
2022-11-14T11:31:10.604Z,8.85
2022-11-14T11:34:13.394Z,8.10
2022-11-14T11:40:22.803Z,8.25
2022-11-14T11:43:56.637Z,7.85
2022-11-14T11:47:00.580Z,7.35
2022-11-14T11:49:55.622Z,8.73
2022-11-14T11:53:12.634Z,7.93
2022-11-14T11:56:06.383Z,8.48
2022-11-14T11:59:01.214Z,7.70
2022-11-14T12:01:47.889Z,7.18
2022-11-14T12:04:36.681Z,7.40
2022-11-14T12:07:44.539Z,6.95
2022-11-14T12:10:39.711Z,6.20
2022-11-14T12:13:50.790Z,6.78
2022-11-14T12:16:59.664Z,7.93
2022-11-14T12:20:04.723Z,7.07
2022-11-14T12:23:20.808Z,7.90
2022-11-14T12:26:32.944Z,7.15
2022-11-14T12:29:50.687Z,6.85
2022-11-14T12:33:08.559Z,6.88
2022-11-14T12:35:59.323Z,7.15
2022-11-14T12:41:38.257Z,7.10
2022-11-14T12:44:27.680Z,6.65
2022-11-14T12:47:18.065Z,7.20
2022-11-14T12:50:31.511Z,6.68
2022-11-14T12:53:36.147Z,6.45
2022-11-14T12:56:31.511Z,6.32
2022-11-14T12:59:53.788Z,6.65
2022-11-14T13:03:11.079Z,6.15
2022-11-14T13:06:25.846Z,6.78
2022-11-14T13:09:32.247Z,6.07
2022-11-14T13:12:55.650Z,5.82
2022-11-14T13:16:17.948Z,5.57
2022-11-14T13:20:11.259Z,5.65
2022-11-14T13:22:57.847Z,5.82
2022-11-14T13:25:44.256Z,5.80
2022-11-14T13:28:36.920Z,5.38
2022-11-14T13:31:26.302Z,5.15
2022-11-14T13:34:53.349Z,6.20
2022-11-14T13:38:22.532Z,6.05
2022-11-14T13:41:46.557Z,5.43
2022-11-14T13:44:58.420Z,5.97
2022-11-14T13:48:47.883Z,5.13
2022-11-14T13:51:43.259Z,5.63
2022-11-14T13:54:30.543Z,5.22
2022-11-14T13:57:45.392Z,5.78
2022-11-14T14:01:04.477Z,5.05
2022-11-14T14:04:12.977Z,5.65
2022-11-14T14:07:32.496Z,5.72
2022-11-14T14:10:58.955Z,5.40
2022-11-14T14:14:40.940Z,5.13
2022-11-14T14:18:02.713Z,5.43
2022-11-14T14:21:09.354Z,5.25
2022-11-14T14:24:18.008Z,5.45
2022-11-14T14:27:20.165Z,5.25
2022-11-14T14:30:19.107Z,6.53
2022-11-14T14:33:08.307Z,5.05
2022-11-14T14:35:55.183Z,5.90
2022-11-14T14:38:41.688Z,6.28
2022-11-14T14:41:35.531Z,5.07
2022-11-14T14:44:47.508Z,6.40
2022-11-14T14:47:47.307Z,5.13
2022-11-14T14:50:50.724Z,5.43
2022-11-14T14:54:16.061Z,5.30
2022-11-14T14:57:03.389Z,5.63
2022-11-14T15:00:01.592Z,5.18
2022-11-14T15:02:49.628Z,5.25
2022-11-14T15:05:35.793Z,5.32
2022-11-14T15:08:22.340Z,5.55
2022-11-14T15:11:09.704Z,5.55
2022-11-14T15:13:58.407Z,6.40
2022-11-14T15:16:46.887Z,4.90
2022-11-14T15:19:45.056Z,5.22
2022-11-14T15:22:32.953Z,5.03
2022-11-14T15:25:21.428Z,5.00
2022-11-14T15:28:20.489Z,5.82
2022-11-14T15:31:12.535Z,6.45
2022-11-14T15:34:23.095Z,5.03
2022-11-14T15:37:16.190Z,5.05
2022-11-14T15:40:20.621Z,4.90
2022-11-14T15:43:38.539Z,5.30
2022-11-14T15:46:41.190Z,5.07
2022-11-14T15:49:28.069Z,5.20
2022-11-14T15:52:47.379Z,5.57
2022-11-14T15:55:34.015Z,5.13
2022-11-14T15:58:28.168Z,5.72
2022-11-14T16:01:23.082Z,6.22
2022-11-14T16:04:24.319Z,5.68
2022-11-14T16:07:13.197Z,6.38
2022-11-14T16:09:59.782Z,5.20
2022-11-14T16:12:52.038Z,5.88
2022-11-14T16:15:44.403Z,5.45
2022-11-14T16:19:01.858Z,5.85
2022-11-14T16:21:48.367Z,6.13
2022-11-14T16:24:34.856Z,4.65
2022-11-14T16:27:21.284Z,5.90
2022-11-14T16:30:08.642Z,5.32
2022-11-14T16:32:54.943Z,6.13
2022-11-14T16:35:41.604Z,6.15
2022-11-14T16:38:30.846Z,5.72
2022-11-14T16:41:17.745Z,5.90
2022-11-14T16:44:04.099Z,13.07
2022-11-14T16:46:50.654Z,11.18
2022-11-14T16:49:37.100Z,9.65
2022-11-14T16:52:23.701Z,8.40
2022-11-14T16:55:11.687Z,9.55
2022-11-14T16:57:58.116Z,7.85
2022-11-14T17:00:44.543Z,7.18
2022-11-14T17:03:32.603Z,6.32
2022-11-14T17:06:22.480Z,7.20
2022-11-14T17:09:11.550Z,5.60
2022-11-14T17:12:03.068Z,7.40
2022-11-14T17:14:49.438Z,6.07
2022-11-14T17:17:35.792Z,6.43
2022-11-14T17:20:22.257Z,5.80
2022-11-14T17:23:08.831Z,6.75
2022-11-14T17:26:05.835Z,6.93
2022-11-14T17:28:54.399Z,13.00
2022-11-14T17:31:45.793Z,11.55
2022-11-14T17:34:33.298Z,8.48
2022-11-14T17:37:19.835Z,8.40
2022-11-14T17:40:11.412Z,7.10
2022-11-14T17:43:00.888Z,7.63
2022-11-14T17:45:56.021Z,7.00
2022-11-14T17:48:43.604Z,7.70
2022-11-14T17:51:53.708Z,7.30
2022-11-14T17:54:40.462Z,7.43
2022-11-14T17:57:27.152Z,6.78
2022-11-14T18:00:14.141Z,5.90
2022-11-14T18:03:00.681Z,6.72
2022-11-14T18:05:47.742Z,6.82
2022-11-14T18:08:35.453Z,5.63
2022-11-14T18:11:22.065Z,6.18
2022-11-14T18:14:08.823Z,6.28
2022-11-14T18:17:14.017Z,5.55
2022-11-14T18:20:00.723Z,5.65
2022-11-14T18:22:47.998Z,6.80
2022-11-14T18:25:34.843Z,5.47
2022-11-14T18:28:22.709Z,6.20
2022-11-14T18:31:11.063Z,6.38
2022-11-14T18:33:59.528Z,5.63
2022-11-14T18:36:46.887Z,6.63
2022-11-14T18:39:43.805Z,5.65
2022-11-14T18:42:30.552Z,6.45
2022-11-14T18:45:21.942Z,6.30
2022-11-14T18:51:05.362Z,6.75
2022-11-14T18:53:51.762Z,7.28
2022-11-14T18:56:38.556Z,6.63
2022-11-14T18:59:33.643Z,10.00
2022-11-14T19:02:20.181Z,7.47
2022-11-14T19:05:07.185Z,7.05
2022-11-14T19:07:53.454Z,7.72
2022-11-14T19:10:40.059Z,8.23
2022-11-14T19:13:51.756Z,6.35
2022-11-14T19:16:40.636Z,6.60
2022-11-14T19:19:27.619Z,6.82
2022-11-14T19:22:21.194Z,6.50
2022-11-14T19:25:09.129Z,6.07
2022-11-14T19:27:55.416Z,6.20
2022-11-14T19:31:07.404Z,5.70
2022-11-14T19:33:53.643Z,6.10
2022-11-14T19:39:46.777Z,6.43
2022-11-14T19:42:33.137Z,7.32
2022-11-14T19:45:19.754Z,6.32
2022-11-14T19:48:06.452Z,6.53
2022-11-14T19:51:07.402Z,6.32
2022-11-14T19:53:54.774Z,5.88
2022-11-14T19:56:41.148Z,5.63
2022-11-14T19:59:28.719Z,6.72
2022-11-14T20:02:16.271Z,7.00
2022-11-14T20:05:02.430Z,7.60
2022-11-14T20:07:51.771Z,6.60
2022-11-14T20:10:47.503Z,7.50
2022-11-14T20:13:42.318Z,6.82
2022-11-14T20:16:34.446Z,6.70
2022-11-14T20:19:23.592Z,5.97
2022-11-14T20:22:11.069Z,6.47
2022-11-14T20:24:59.071Z,6.22
2022-11-14T20:27:50.413Z,5.93
2022-11-14T20:30:40.175Z,5.60
2022-11-14T20:33:26.969Z,5.57
2022-11-14T20:36:20.478Z,5.72
2022-11-14T20:39:07.056Z,5.93
2022-11-14T20:41:53.756Z,5.70
2022-11-14T20:44:40.489Z,6.07
2022-11-14T20:47:28.338Z,6.75
2022-11-14T20:50:15.195Z,5.50
2022-11-14T20:53:01.545Z,6.68
2022-11-14T20:55:53.855Z,5.50
2022-11-14T20:58:48.439Z,6.03
2022-11-14T21:01:39.046Z,5.93
2022-11-14T21:04:30.946Z,6.63
2022-11-14T21:07:17.346Z,6.50
2022-11-14T21:10:22.981Z,6.07
2022-11-14T21:13:28.319Z,5.95
2022-11-14T21:16:18.987Z,6.50
2022-11-14T21:19:06.293Z,6.20
2022-11-14T21:22:14.405Z,6.13
2022-11-14T21:25:01.823Z,6.43
2022-11-14T21:27:48.413Z,6.38
2022-11-14T21:30:34.938Z,6.07
2022-11-14T21:33:21.422Z,6.05
2022-11-14T21:36:30.140Z,5.97
2022-11-14T21:39:16.903Z,6.03
2022-11-14T21:42:04.408Z,5.50
2022-11-14T21:44:54.484Z,5.75
2022-11-14T21:47:41.231Z,6.30
2022-11-14T21:50:27.674Z,6.00
2022-11-14T21:53:17.480Z,7.00
2022-11-14T21:56:19.811Z,7.63
2022-11-14T21:59:16.375Z,6.22
2022-11-14T22:02:22.035Z,7.20
2022-11-14T22:05:33.530Z,6.63
2022-11-14T22:08:19.397Z,6.25
2022-11-14T22:11:06.048Z,6.05
2022-11-14T22:13:52.441Z,6.70
2022-11-14T22:16:38.974Z,6.68
2022-11-14T22:19:26.357Z,5.93
2022-11-14T22:22:12.653Z,6.10
2022-11-14T22:24:59.574Z,5.57
2022-11-14T22:27:45.994Z,5.55
2022-11-14T22:30:32.457Z,6.18
2022-11-14T22:33:18.997Z,6.75
2022-11-14T22:36:09.911Z,6.32
2022-11-14T22:38:57.014Z,5.65
2022-11-14T22:41:43.375Z,5.22
2022-11-14T22:44:29.745Z,7.95
2022-11-14T22:47:26.018Z,6.97
2022-11-14T22:50:13.260Z,6.80
2022-11-14T22:52:59.549Z,6.20
2022-11-14T22:55:48.899Z,6.53
2022-11-14T22:58:37.865Z,6.93
2022-11-14T23:01:24.574Z,6.32
2022-11-14T23:04:11.393Z,6.50
2022-11-14T23:06:57.783Z,6.20
2022-11-14T23:09:44.250Z,6.15
2022-11-14T23:12:30.876Z,7.55
2022-11-14T23:15:17.198Z,6.32
2022-11-14T23:18:05.394Z,6.30
2022-11-14T23:20:51.861Z,6.88
2022-11-14T23:23:38.555Z,6.55
2022-11-14T23:26:26.092Z,6.13
2022-11-14T23:29:15.386Z,6.05
2022-11-14T23:32:02.449Z,5.75
2022-11-14T23:34:48.511Z,5.32
2022-11-14T23:37:35.062Z,6.38
2022-11-14T23:40:21.562Z,6.88
2022-11-14T23:43:08.065Z,6.68
2022-11-14T23:45:54.558Z,7.22
2022-11-14T23:48:41.097Z,5.53
2022-11-14T23:51:27.583Z,6.25
2022-11-14T23:54:14.125Z,6.28
2022-11-14T23:57:04.407Z,5.18
2022-11-14T23:59:51.936Z,6.18
